sensor_id;sensor_type;location;lat;lon;timestamp;P1;durP1;ratioP1;P2;durP2;ratioP2
70761;SDS011;58360;0.000;0.000;2022-10-31T00:00:48;20.95;;;12.65;;
70761;SDS011;58360;0.000;0.000;2022-10-31T00:03:14;25.33;;;13.07;;
70761;SDS011;58360;0.000;0.000;2022-10-31T00:05:44;22.42;;;13.02;;
70761;SDS011;58360;0.000;0.000;2022-10-31T00:08:11;26.52;;;12.95;;
70761;SDS011;58360;0.000;0.000;2022-10-31T00:10:38;22.52;;;12.48;;
70761;SDS011;58360;0.000;0.000;2022-10-31T00:13:04;26.83;;;13.15;;
70761;SDS011;58360;0.000;0.000;2022-10-31T00:15:31;21.75;;;12.73;;
70761;SDS011;58360;0.000;0.000;2022-10-31T00:18:01;24.65;;;13.70;;
70761;SDS011;58360;0.000;0.000;2022-10-31T00:20:27;19.30;;;13.18;;
70761;SDS011;58360;0.000;0.000;2022-10-31T00:22:53;24.70;;;13.40;;
70761;SDS011;58360;0.000;0.000;2022-10-31T00:25:22;25.60;;;12.93;;
70761;SDS011;58360;0.000;0.000;2022-10-31T00:27:47;23.33;;;13.20;;
70761;SDS011;58360;0.000;0.000;2022-10-31T00:30:13;18.73;;;13.07;;
70761;SDS011;58360;0.000;0.000;2022-10-31T00:32:39;23.50;;;13.32;;
70761;SDS011;58360;0.000;0.000;2022-10-31T00:35:04;29.70;;;14.00;;
70761;SDS011;58360;0.000;0.000;2022-10-31T00:37:30;22.13;;;13.77;;
70761;SDS011;58360;0.000;0.000;2022-10-31T00:39:56;25.52;;;13.68;;
70761;SDS011;58360;0.000;0.000;2022-10-31T00:42:21;20.42;;;13.18;;
70761;SDS011;58360;0.000;0.000;2022-10-31T00:44:47;24.98;;;13.73;;
70761;SDS011;58360;0.000;0.000;2022-10-31T00:47:13;26.30;;;15.38;;
70761;SDS011;58360;0.000;0.000;2022-10-31T00:49:38;26.02;;;13.73;;
70761;SDS011;58360;0.000;0.000;2022-10-31T00:52:04;26.55;;;14.30;;
70761;SDS011;58360;0.000;0.000;2022-10-31T00:54:30;27.33;;;15.05;;
70761;SDS011;58360;0.000;0.000;2022-10-31T00:56:56;29.50;;;14.20;;
70761;SDS011;58360;0.000;0.000;2022-10-31T00:59:22;30.13;;;14.70;;
70761;SDS011;58360;0.000;0.000;2022-10-31T01:01:48;28.52;;;15.38;;
70761;SDS011;58360;0.000;0.000;2022-10-31T01:04:13;28.83;;;15.05;;
70761;SDS011;58360;0.000;0.000;2022-10-31T01:06:39;27.70;;;14.85;;
70761;SDS011;58360;0.000;0.000;2022-10-31T01:09:05;25.98;;;14.18;;
70761;SDS011;58360;0.000;0.000;2022-10-31T01:11:31;24.58;;;14.63;;
70761;SDS011;58360;0.000;0.000;2022-10-31T01:13:56;29.25;;;14.88;;
70761;SDS011;58360;0.000;0.000;2022-10-31T01:16:23;27.92;;;15.60;;
70761;SDS011;58360;0.000;0.000;2022-10-31T01:18:50;23.25;;;13.90;;
70761;SDS011;58360;0.000;0.000;2022-10-31T01:21:17;24.63;;;14.32;;
70761;SDS011;58360;0.000;0.000;2022-10-31T01:23:45;23.58;;;14.68;;
70761;SDS011;58360;0.000;0.000;2022-10-31T01:26:13;21.13;;;13.02;;
70761;SDS011;58360;0.000;0.000;2022-10-31T01:28:49;23.35;;;14.13;;
70761;SDS011;58360;0.000;0.000;2022-10-31T01:31:16;26.08;;;13.93;;
70761;SDS011;58360;0.000;0.000;2022-10-31T01:33:43;23.80;;;13.73;;
70761;SDS011;58360;0.000;0.000;2022-10-31T01:36:13;22.58;;;14.20;;
70761;SDS011;58360;0.000;0.000;2022-10-31T01:38:42;24.58;;;13.73;;
70761;SDS011;58360;0.000;0.000;2022-10-31T01:41:08;22.50;;;14.50;;
70761;SDS011;58360;0.000;0.000;2022-10-31T01:43:43;25.90;;;14.30;;
70761;SDS011;58360;0.000;0.000;2022-10-31T01:46:10;26.92;;;15.00;;
70761;SDS011;58360;0.000;0.000;2022-10-31T01:48:36;25.77;;;15.38;;
70761;SDS011;58360;0.000;0.000;2022-10-31T01:51:03;25.42;;;15.07;;
70761;SDS011;58360;0.000;0.000;2022-10-31T01:53:30;25.42;;;14.65;;
70761;SDS011;58360;0.000;0.000;2022-10-31T01:55:56;24.98;;;13.93;;
70761;SDS011;58360;0.000;0.000;2022-10-31T01:58:24;30.95;;;14.77;;
70761;SDS011;58360;0.000;0.000;2022-10-31T02:00:53;23.65;;;14.35;;
70761;SDS011;58360;0.000;0.000;2022-10-31T02:03:23;25.00;;;14.03;;
70761;SDS011;58360;0.000;0.000;2022-10-31T02:05:51;22.73;;;13.77;;
70761;SDS011;58360;0.000;0.000;2022-10-31T02:08:26;21.45;;;13.82;;
70761;SDS011;58360;0.000;0.000;2022-10-31T02:10:53;19.23;;;13.02;;
70761;SDS011;58360;0.000;0.000;2022-10-31T02:13:21;22.63;;;13.43;;
70761;SDS011;58360;0.000;0.000;2022-10-31T02:15:52;23.30;;;13.73;;
70761;SDS011;58360;0.000;0.000;2022-10-31T02:18:20;23.77;;;14.40;;
70761;SDS011;58360;0.000;0.000;2022-10-31T02:20:50;21.92;;;12.95;;
70761;SDS011;58360;0.000;0.000;2022-10-31T02:26:12;26.13;;;13.73;;
70761;SDS011;58360;0.000;0.000;2022-10-31T02:29:05;17.83;;;12.63;;
70761;SDS011;58360;0.000;0.000;2022-10-31T02:31:45;19.85;;;12.60;;
70761;SDS011;58360;0.000;0.000;2022-10-31T02:34:28;21.75;;;12.95;;
70761;SDS011;58360;0.000;0.000;2022-10-31T02:40:25;20.95;;;12.55;;
70761;SDS011;58360;0.000;0.000;2022-10-31T02:45:32;22.17;;;12.20;;
70761;SDS011;58360;0.000;0.000;2022-10-31T02:48:12;19.88;;;11.65;;
70761;SDS011;58360;0.000;0.000;2022-10-31T02:50:43;19.27;;;11.82;;
70761;SDS011;58360;0.000;0.000;2022-10-31T02:55:49;25.77;;;13.07;;
70761;SDS011;58360;0.000;0.000;2022-10-31T02:58:24;26.52;;;12.57;;
70761;SDS011;58360;0.000;0.000;2022-10-31T03:06:32;18.63;;;12.32;;
70761;SDS011;58360;0.000;0.000;2022-10-31T03:17:33;18.00;;;11.63;;
70761;SDS011;58360;0.000;0.000;2022-10-31T03:20:03;23.67;;;13.40;;
70761;SDS011;58360;0.000;0.000;2022-10-31T03:22:31;19.00;;;12.35;;
70761;SDS011;58360;0.000;0.000;2022-10-31T03:25:00;18.90;;;11.35;;
70761;SDS011;58360;0.000;0.000;2022-10-31T03:27:28;20.02;;;10.07;;
70761;SDS011;58360;0.000;0.000;2022-10-31T03:29:57;17.15;;;10.23;;
70761;SDS011;58360;0.000;0.000;2022-10-31T03:32:31;16.55;;;10.77;;
70761;SDS011;58360;0.000;0.000;2022-10-31T03:35:02;15.07;;;10.55;;
70761;SDS011;58360;0.000;0.000;2022-10-31T03:37:30;17.67;;;11.02;;
70761;SDS011;58360;0.000;0.000;2022-10-31T03:39:59;20.40;;;11.80;;
70761;SDS011;58360;0.000;0.000;2022-10-31T03:42:28;19.48;;;11.77;;
70761;SDS011;58360;0.000;0.000;2022-10-31T03:44:58;23.98;;;13.40;;
70761;SDS011;58360;0.000;0.000;2022-10-31T03:47:37;24.65;;;13.05;;
70761;SDS011;58360;0.000;0.000;2022-10-31T03:50:04;23.38;;;12.85;;
70761;SDS011;58360;0.000;0.000;2022-10-31T03:52:37;21.20;;;12.80;;
70761;SDS011;58360;0.000;0.000;2022-10-31T04:00:15;19.25;;;12.20;;
70761;SDS011;58360;0.000;0.000;2022-10-31T04:02:46;19.38;;;12.05;;
70761;SDS011;58360;0.000;0.000;2022-10-31T04:05:16;15.07;;;10.30;;
70761;SDS011;58360;0.000;0.000;2022-10-31T04:07:45;19.75;;;11.40;;
70761;SDS011;58360;0.000;0.000;2022-10-31T04:10:15;21.00;;;11.70;;
70761;SDS011;58360;0.000;0.000;2022-10-31T04:12:44;18.33;;;11.00;;
70761;SDS011;58360;0.000;0.000;2022-10-31T04:15:16;17.80;;;10.52;;
70761;SDS011;58360;0.000;0.000;2022-10-31T04:17:42;16.05;;;11.00;;
70761;SDS011;58360;0.000;0.000;2022-10-31T04:20:14;15.60;;;9.88;;
70761;SDS011;58360;0.000;0.000;2022-10-31T04:22:41;16.20;;;9.82;;
70761;SDS011;58360;0.000;0.000;2022-10-31T04:25:07;16.52;;;9.57;;
70761;SDS011;58360;0.000;0.000;2022-10-31T04:27:33;12.63;;;8.45;;
70761;SDS011;58360;0.000;0.000;2022-10-31T04:29:58;13.73;;;8.60;;
70761;SDS011;58360;0.000;0.000;2022-10-31T04:32:24;12.30;;;8.98;;
70761;SDS011;58360;0.000;0.000;2022-10-31T04:34:51;12.63;;;7.78;;
70761;SDS011;58360;0.000;0.000;2022-10-31T04:37:16;12.30;;;8.43;;
70761;SDS011;58360;0.000;0.000;2022-10-31T04:39:42;11.38;;;8.00;;
70761;SDS011;58360;0.000;0.000;2022-10-31T04:42:07;12.98;;;7.82;;
70761;SDS011;58360;0.000;0.000;2022-10-31T04:44:33;10.27;;;7.47;;
70761;SDS011;58360;0.000;0.000;2022-10-31T04:46:59;11.55;;;7.93;;
70761;SDS011;58360;0.000;0.000;2022-10-31T04:49:24;14.77;;;9.45;;
70761;SDS011;58360;0.000;0.000;2022-10-31T04:51:50;13.63;;;8.52;;
70761;SDS011;58360;0.000;0.000;2022-10-31T04:54:15;16.38;;;8.65;;
70761;SDS011;58360;0.000;0.000;2022-10-31T04:56:42;14.00;;;8.70;;
70761;SDS011;58360;0.000;0.000;2022-10-31T04:59:07;12.27;;;8.82;;
70761;SDS011;58360;0.000;0.000;2022-10-31T05:01:33;13.23;;;8.48;;
70761;SDS011;58360;0.000;0.000;2022-10-31T05:03:58;13.80;;;9.07;;
70761;SDS011;58360;0.000;0.000;2022-10-31T05:06:24;14.27;;;9.07;;
70761;SDS011;58360;0.000;0.000;2022-10-31T05:08:50;12.07;;;8.32;;
70761;SDS011;58360;0.000;0.000;2022-10-31T05:11:15;18.00;;;9.52;;
70761;SDS011;58360;0.000;0.000;2022-10-31T05:13:41;15.57;;;10.13;;
70761;SDS011;58360;0.000;0.000;2022-10-31T05:16:07;19.10;;;10.05;;
70761;SDS011;58360;0.000;0.000;2022-10-31T05:18:32;23.63;;;9.07;;
70761;SDS011;58360;0.000;0.000;2022-10-31T05:20:58;15.68;;;8.73;;
70761;SDS011;58360;0.000;0.000;2022-10-31T05:23:23;12.10;;;7.85;;
70761;SDS011;58360;0.000;0.000;2022-10-31T05:25:49;11.63;;;7.70;;
70761;SDS011;58360;0.000;0.000;2022-10-31T05:28:15;12.07;;;7.95;;
70761;SDS011;58360;0.000;0.000;2022-10-31T05:30:40;13.20;;;8.52;;
70761;SDS011;58360;0.000;0.000;2022-10-31T05:33:06;12.07;;;8.23;;
70761;SDS011;58360;0.000;0.000;2022-10-31T05:35:32;12.63;;;8.52;;
70761;SDS011;58360;0.000;0.000;2022-10-31T05:37:58;13.13;;;8.15;;
70761;SDS011;58360;0.000;0.000;2022-10-31T05:40:25;13.23;;;8.77;;
70761;SDS011;58360;0.000;0.000;2022-10-31T05:42:52;13.90;;;8.13;;
70761;SDS011;58360;0.000;0.000;2022-10-31T05:45:19;15.65;;;9.70;;
70761;SDS011;58360;0.000;0.000;2022-10-31T05:47:58;16.00;;;9.02;;
70761;SDS011;58360;0.000;0.000;2022-10-31T05:50:25;12.25;;;8.05;;
70761;SDS011;58360;0.000;0.000;2022-10-31T05:52:56;13.23;;;8.27;;
70761;SDS011;58360;0.000;0.000;2022-10-31T05:55:24;14.05;;;8.18;;
70761;SDS011;58360;0.000;0.000;2022-10-31T05:57:51;14.43;;;8.38;;
70761;SDS011;58360;0.000;0.000;2022-10-31T06:00:17;13.70;;;8.30;;
70761;SDS011;58360;0.000;0.000;2022-10-31T06:02:43;12.60;;;7.60;;
70761;SDS011;58360;0.000;0.000;2022-10-31T06:05:09;10.85;;;7.63;;
70761;SDS011;58360;0.000;0.000;2022-10-31T06:07:35;12.60;;;8.60;;
70761;SDS011;58360;0.000;0.000;2022-10-31T06:10:01;14.07;;;8.18;;
70761;SDS011;58360;0.000;0.000;2022-10-31T06:12:29;14.93;;;8.80;;
70761;SDS011;58360;0.000;0.000;2022-10-31T06:14:55;12.75;;;8.93;;
70761;SDS011;58360;0.000;0.000;2022-10-31T06:17:21;23.23;;;8.88;;
70761;SDS011;58360;0.000;0.000;2022-10-31T06:19:46;14.98;;;8.27;;
70761;SDS011;58360;0.000;0.000;2022-10-31T06:22:12;13.50;;;8.55;;
70761;SDS011;58360;0.000;0.000;2022-10-31T06:24:38;15.98;;;7.97;;
70761;SDS011;58360;0.000;0.000;2022-10-31T06:27:04;17.17;;;8.57;;
70761;SDS011;58360;0.000;0.000;2022-10-31T06:29:30;15.98;;;8.43;;
70761;SDS011;58360;0.000;0.000;2022-10-31T06:31:56;15.18;;;9.85;;
70761;SDS011;58360;0.000;0.000;2022-10-31T06:34:22;16.10;;;8.68;;
70761;SDS011;58360;0.000;0.000;2022-10-31T06:36:48;13.05;;;8.45;;
70761;SDS011;58360;0.000;0.000;2022-10-31T06:39:14;17.20;;;9.52;;
70761;SDS011;58360;0.000;0.000;2022-10-31T06:41:40;18.27;;;9.50;;
70761;SDS011;58360;0.000;0.000;2022-10-31T06:44:06;17.23;;;9.10;;
70761;SDS011;58360;0.000;0.000;2022-10-31T06:46:32;15.40;;;10.05;;
70761;SDS011;58360;0.000;0.000;2022-10-31T06:48:58;17.08;;;10.80;;
70761;SDS011;58360;0.000;0.000;2022-10-31T06:51:24;18.83;;;11.35;;
70761;SDS011;58360;0.000;0.000;2022-10-31T06:53:50;18.02;;;12.18;;
70761;SDS011;58360;0.000;0.000;2022-10-31T06:56:15;18.88;;;11.85;;
70761;SDS011;58360;0.000;0.000;2022-10-31T06:58:41;21.33;;;12.27;;
70761;SDS011;58360;0.000;0.000;2022-10-31T07:01:07;18.58;;;12.43;;
70761;SDS011;58360;0.000;0.000;2022-10-31T07:03:32;20.80;;;14.38;;
70761;SDS011;58360;0.000;0.000;2022-10-31T07:05:58;25.70;;;13.90;;
70761;SDS011;58360;0.000;0.000;2022-10-31T07:08:24;23.67;;;13.55;;
70761;SDS011;58360;0.000;0.000;2022-10-31T07:10:51;24.95;;;14.25;;
70761;SDS011;58360;0.000;0.000;2022-10-31T07:13:19;22.13;;;14.10;;
70761;SDS011;58360;0.000;0.000;2022-10-31T07:15:49;26.48;;;13.48;;
70761;SDS011;58360;0.000;0.000;2022-10-31T07:18:16;26.50;;;13.90;;
70761;SDS011;58360;0.000;0.000;2022-10-31T07:20:41;23.83;;;13.95;;
70761;SDS011;58360;0.000;0.000;2022-10-31T07:23:08;24.55;;;14.07;;
70761;SDS011;58360;0.000;0.000;2022-10-31T07:25:35;19.40;;;12.63;;
70761;SDS011;58360;0.000;0.000;2022-10-31T07:28:01;19.33;;;12.32;;
70761;SDS011;58360;0.000;0.000;2022-10-31T07:30:27;22.52;;;13.38;;
70761;SDS011;58360;0.000;0.000;2022-10-31T07:32:53;24.20;;;12.52;;
70761;SDS011;58360;0.000;0.000;2022-10-31T07:35:25;19.02;;;12.05;;
70761;SDS011;58360;0.000;0.000;2022-10-31T07:37:53;19.08;;;11.70;;
70761;SDS011;58360;0.000;0.000;2022-10-31T07:40:19;20.05;;;12.23;;
70761;SDS011;58360;0.000;0.000;2022-10-31T07:42:48;19.33;;;11.25;;
70761;SDS011;58360;0.000;0.000;2022-10-31T07:45:16;20.17;;;12.68;;
70761;SDS011;58360;0.000;0.000;2022-10-31T07:47:44;22.85;;;12.43;;
70761;SDS011;58360;0.000;0.000;2022-10-31T07:50:12;25.48;;;13.27;;
70761;SDS011;58360;0.000;0.000;2022-10-31T07:52:40;23.25;;;12.88;;
70761;SDS011;58360;0.000;0.000;2022-10-31T07:55:06;22.08;;;13.65;;
70761;SDS011;58360;0.000;0.000;2022-10-31T07:57:32;20.95;;;13.27;;
70761;SDS011;58360;0.000;0.000;2022-10-31T07:59:58;29.48;;;15.23;;
70761;SDS011;58360;0.000;0.000;2022-10-31T08:02:24;22.58;;;13.90;;
70761;SDS011;58360;0.000;0.000;2022-10-31T08:04:50;21.27;;;13.57;;
70761;SDS011;58360;0.000;0.000;2022-10-31T08:07:16;26.40;;;14.40;;
70761;SDS011;58360;0.000;0.000;2022-10-31T08:09:42;25.63;;;14.27;;
70761;SDS011;58360;0.000;0.000;2022-10-31T08:12:08;24.08;;;14.65;;
70761;SDS011;58360;0.000;0.000;2022-10-31T08:14:34;23.30;;;14.25;;
70761;SDS011;58360;0.000;0.000;2022-10-31T08:16:59;29.08;;;15.05;;
70761;SDS011;58360;0.000;0.000;2022-10-31T08:19:25;26.50;;;16.23;;
70761;SDS011;58360;0.000;0.000;2022-10-31T08:21:51;28.63;;;15.57;;
70761;SDS011;58360;0.000;0.000;2022-10-31T08:24:17;28.98;;;15.90;;
70761;SDS011;58360;0.000;0.000;2022-10-31T08:26:43;25.30;;;15.77;;
70761;SDS011;58360;0.000;0.000;2022-10-31T08:29:09;26.30;;;14.73;;
70761;SDS011;58360;0.000;0.000;2022-10-31T08:31:35;23.40;;;15.00;;
70761;SDS011;58360;0.000;0.000;2022-10-31T08:34:00;24.58;;;15.00;;
70761;SDS011;58360;0.000;0.000;2022-10-31T08:36:26;25.83;;;15.05;;
70761;SDS011;58360;0.000;0.000;2022-10-31T08:38:53;23.17;;;15.40;;
70761;SDS011;58360;0.000;0.000;2022-10-31T08:41:19;24.50;;;14.95;;
70761;SDS011;58360;0.000;0.000;2022-10-31T08:43:45;22.83;;;13.98;;
70761;SDS011;58360;0.000;0.000;2022-10-31T08:46:11;28.02;;;15.82;;
70761;SDS011;58360;0.000;0.000;2022-10-31T08:48:36;29.48;;;16.42;;
70761;SDS011;58360;0.000;0.000;2022-10-31T08:51:02;27.50;;;16.67;;
70761;SDS011;58360;0.000;0.000;2022-10-31T08:53:28;26.20;;;17.33;;
70761;SDS011;58360;0.000;0.000;2022-10-31T08:55:54;27.83;;;16.73;;
70761;SDS011;58360;0.000;0.000;2022-10-31T08:58:21;26.23;;;16.50;;
70761;SDS011;58360;0.000;0.000;2022-10-31T09:00:49;25.27;;;18.05;;
70761;SDS011;58360;0.000;0.000;2022-10-31T09:03:21;27.60;;;17.13;;
70761;SDS011;58360;0.000;0.000;2022-10-31T09:05:48;25.63;;;17.58;;
70761;SDS011;58360;0.000;0.000;2022-10-31T09:08:14;27.15;;;17.75;;
70761;SDS011;58360;0.000;0.000;2022-10-31T09:10:40;30.98;;;18.27;;
70761;SDS011;58360;0.000;0.000;2022-10-31T09:13:08;29.00;;;18.70;;
70761;SDS011;58360;0.000;0.000;2022-10-31T09:15:37;30.67;;;20.02;;
70761;SDS011;58360;0.000;0.000;2022-10-31T09:18:04;30.88;;;19.65;;
70761;SDS011;58360;0.000;0.000;2022-10-31T09:20:31;36.78;;;19.92;;
70761;SDS011;58360;0.000;0.000;2022-10-31T09:23:01;27.75;;;18.60;;
70761;SDS011;58360;0.000;0.000;2022-10-31T09:25:28;31.33;;;18.43;;
70761;SDS011;58360;0.000;0.000;2022-10-31T09:27:58;28.60;;;17.35;;
70761;SDS011;58360;0.000;0.000;2022-10-31T09:30:28;27.83;;;18.02;;
70761;SDS011;58360;0.000;0.000;2022-10-31T09:32:59;29.05;;;18.17;;
70761;SDS011;58360;0.000;0.000;2022-10-31T09:35:26;27.75;;;17.90;;
70761;SDS011;58360;0.000;0.000;2022-10-31T09:38:02;27.23;;;17.30;;
70761;SDS011;58360;0.000;0.000;2022-10-31T09:40:35;32.17;;;18.90;;
70761;SDS011;58360;0.000;0.000;2022-10-31T09:46:01;28.38;;;17.30;;
70761;SDS011;58360;0.000;0.000;2022-10-31T09:48:35;30.15;;;17.90;;
70761;SDS011;58360;0.000;0.000;2022-10-31T09:51:10;29.10;;;17.50;;
70761;SDS011;58360;0.000;0.000;2022-10-31T09:53:47;25.27;;;17.23;;
70761;SDS011;58360;0.000;0.000;2022-10-31T09:56:18;29.80;;;18.50;;
70761;SDS011;58360;0.000;0.000;2022-10-31T09:58:47;30.85;;;19.05;;
70761;SDS011;58360;0.000;0.000;2022-10-31T10:01:34;30.63;;;19.92;;
70761;SDS011;58360;0.000;0.000;2022-10-31T10:04:48;31.17;;;19.77;;
70761;SDS011;58360;0.000;0.000;2022-10-31T10:07:29;32.13;;;18.65;;
70761;SDS011;58360;0.000;0.000;2022-10-31T10:09:57;29.67;;;18.75;;
70761;SDS011;58360;0.000;0.000;2022-10-31T10:16:19;32.08;;;19.17;;
70761;SDS011;58360;0.000;0.000;2022-10-31T10:27:16;31.05;;;18.65;;
70761;SDS011;58360;0.000;0.000;2022-10-31T10:29:44;23.35;;;15.77;;
70761;SDS011;58360;0.000;0.000;2022-10-31T10:32:28;28.50;;;16.75;;
70761;SDS011;58360;0.000;0.000;2022-10-31T10:34:59;26.73;;;16.25;;
70761;SDS011;58360;0.000;0.000;2022-10-31T10:37:37;28.38;;;16.35;;
70761;SDS011;58360;0.000;0.000;2022-10-31T10:40:17;25.35;;;15.90;;
70761;SDS011;58360;0.000;0.000;2022-10-31T10:42:56;28.50;;;17.10;;
70761;SDS011;58360;0.000;0.000;2022-10-31T10:59:45;30.67;;;18.70;;
70761;SDS011;58360;0.000;0.000;2022-10-31T11:02:18;39.88;;;18.73;;
70761;SDS011;58360;0.000;0.000;2022-10-31T11:04:49;31.05;;;18.75;;
70761;SDS011;58360;0.000;0.000;2022-10-31T11:07:19;35.58;;;18.98;;
70761;SDS011;58360;0.000;0.000;2022-10-31T11:09:46;32.95;;;18.60;;
70761;SDS011;58360;0.000;0.000;2022-10-31T11:12:26;32.13;;;19.08;;
70761;SDS011;58360;0.000;0.000;2022-10-31T11:14:58;34.28;;;19.15;;
70761;SDS011;58360;0.000;0.000;2022-10-31T11:17:28;37.38;;;20.25;;
70761;SDS011;58360;0.000;0.000;2022-10-31T11:20:01;43.25;;;20.00;;
70761;SDS011;58360;0.000;0.000;2022-10-31T11:22:42;33.83;;;18.90;;
70761;SDS011;58360;0.000;0.000;2022-10-31T11:27:45;32.08;;;19.42;;
70761;SDS011;58360;0.000;0.000;2022-10-31T11:30:14;34.22;;;20.52;;
70761;SDS011;58360;0.000;0.000;2022-10-31T11:32:42;34.03;;;19.50;;
70761;SDS011;58360;0.000;0.000;2022-10-31T11:35:14;33.67;;;20.67;;
70761;SDS011;58360;0.000;0.000;2022-10-31T11:37:43;39.65;;;22.23;;
70761;SDS011;58360;0.000;0.000;2022-10-31T11:40:18;33.25;;;22.02;;
70761;SDS011;58360;0.000;0.000;2022-10-31T11:42:49;41.38;;;21.13;;
70761;SDS011;58360;0.000;0.000;2022-10-31T11:50:19;38.50;;;20.40;;
70761;SDS011;58360;0.000;0.000;2022-10-31T11:52:48;32.58;;;19.27;;
70761;SDS011;58360;0.000;0.000;2022-10-31T11:55:16;38.67;;;19.23;;
70761;SDS011;58360;0.000;0.000;2022-10-31T11:57:56;36.87;;;20.17;;
70761;SDS011;58360;0.000;0.000;2022-10-31T12:02:48;31.17;;;18.85;;
70761;SDS011;58360;0.000;0.000;2022-10-31T12:05:18;35.80;;;20.73;;
70761;SDS011;58360;0.000;0.000;2022-10-31T12:07:48;34.42;;;20.20;;
70761;SDS011;58360;0.000;0.000;2022-10-31T12:10:14;40.22;;;21.40;;
70761;SDS011;58360;0.000;0.000;2022-10-31T12:12:46;34.42;;;20.48;;
70761;SDS011;58360;0.000;0.000;2022-10-31T12:18:16;39.08;;;20.67;;
70761;SDS011;58360;0.000;0.000;2022-10-31T12:28:53;33.13;;;20.05;;
70761;SDS011;58360;0.000;0.000;2022-10-31T12:31:55;38.85;;;20.42;;
70761;SDS011;58360;0.000;0.000;2022-10-31T12:40:24;30.67;;;19.25;;
70761;SDS011;58360;0.000;0.000;2022-10-31T12:43:08;35.35;;;19.30;;
70761;SDS011;58360;0.000;0.000;2022-10-31T12:45:39;34.42;;;17.92;;
70761;SDS011;58360;0.000;0.000;2022-10-31T12:50:54;40.95;;;18.17;;
70761;SDS011;58360;0.000;0.000;2022-10-31T12:53:49;30.45;;;17.50;;
70761;SDS011;58360;0.000;0.000;2022-10-31T12:59:33;29.27;;;15.82;;
70761;SDS011;58360;0.000;0.000;2022-10-31T13:02:17;26.42;;;15.45;;
70761;SDS011;58360;0.000;0.000;2022-10-31T13:07:43;34.05;;;14.65;;
70761;SDS011;58360;0.000;0.000;2022-10-31T13:12:42;27.80;;;15.38;;
70761;SDS011;58360;0.000;0.000;2022-10-31T13:15:23;30.25;;;12.88;;
70761;SDS011;58360;0.000;0.000;2022-10-31T13:17:56;25.75;;;10.90;;
70761;SDS011;58360;0.000;0.000;2022-10-31T13:20:34;26.75;;;10.50;;
70761;SDS011;58360;0.000;0.000;2022-10-31T13:26:07;23.17;;;10.60;;
70761;SDS011;58360;0.000;0.000;2022-10-31T13:28:47;19.52;;;8.45;;
70761;SDS011;58360;0.000;0.000;2022-10-31T13:31:13;21.55;;;8.48;;
70761;SDS011;58360;0.000;0.000;2022-10-31T13:33:41;22.90;;;8.63;;
70761;SDS011;58360;0.000;0.000;2022-10-31T13:42:18;18.80;;;8.13;;
70761;SDS011;58360;0.000;0.000;2022-10-31T13:44:47;19.88;;;8.32;;
70761;SDS011;58360;0.000;0.000;2022-10-31T13:50:06;23.73;;;9.25;;
70761;SDS011;58360;0.000;0.000;2022-10-31T13:52:48;16.60;;;9.00;;
70761;SDS011;58360;0.000;0.000;2022-10-31T13:58:23;19.25;;;8.45;;
70761;SDS011;58360;0.000;0.000;2022-10-31T14:00:58;19.75;;;9.35;;
70761;SDS011;58360;0.000;0.000;2022-10-31T14:03:38;21.35;;;10.45;;
70761;SDS011;58360;0.000;0.000;2022-10-31T14:06:06;21.10;;;9.75;;
70761;SDS011;58360;0.000;0.000;2022-10-31T14:08:34;19.35;;;9.95;;
70761;SDS011;58360;0.000;0.000;2022-10-31T14:11:02;28.00;;;10.65;;
70761;SDS011;58360;0.000;0.000;2022-10-31T14:13:40;19.60;;;9.13;;
70761;SDS011;58360;0.000;0.000;2022-10-31T14:16:23;19.70;;;9.48;;
70761;SDS011;58360;0.000;0.000;2022-10-31T14:18:59;33.22;;;10.70;;
70761;SDS011;58360;0.000;0.000;2022-10-31T14:21:30;19.30;;;10.43;;
70761;SDS011;58360;0.000;0.000;2022-10-31T14:24:02;27.88;;;10.70;;
70761;SDS011;58360;0.000;0.000;2022-10-31T14:26:50;29.92;;;9.93;;
70761;SDS011;58360;0.000;0.000;2022-10-31T14:29:25;27.17;;;10.55;;
70761;SDS011;58360;0.000;0.000;2022-10-31T14:31:58;23.73;;;9.65;;
70761;SDS011;58360;0.000;0.000;2022-10-31T14:34:33;20.70;;;9.18;;
70761;SDS011;58360;0.000;0.000;2022-10-31T14:43:04;30.27;;;9.35;;
70761;SDS011;58360;0.000;0.000;2022-10-31T14:46:04;16.73;;;8.60;;
70761;SDS011;58360;0.000;0.000;2022-10-31T14:49:02;21.75;;;8.48;;
70761;SDS011;58360;0.000;0.000;2022-10-31T14:51:40;19.50;;;8.20;;
70761;SDS011;58360;0.000;0.000;2022-10-31T14:54:18;19.77;;;8.02;;
70761;SDS011;58360;0.000;0.000;2022-10-31T14:57:06;18.67;;;7.78;;
70761;SDS011;58360;0.000;0.000;2022-10-31T14:59:45;22.00;;;8.13;;
70761;SDS011;58360;0.000;0.000;2022-10-31T15:02:16;19.13;;;7.85;;
70761;SDS011;58360;0.000;0.000;2022-10-31T15:04:48;22.33;;;8.15;;
70761;SDS011;58360;0.000;0.000;2022-10-31T15:07:20;19.88;;;8.50;;
70761;SDS011;58360;0.000;0.000;2022-10-31T15:09:58;18.10;;;7.45;;
70761;SDS011;58360;0.000;0.000;2022-10-31T15:12:32;14.23;;;7.07;;
70761;SDS011;58360;0.000;0.000;2022-10-31T15:15:12;14.57;;;7.00;;
70761;SDS011;58360;0.000;0.000;2022-10-31T15:17:44;20.48;;;7.25;;
70761;SDS011;58360;0.000;0.000;2022-10-31T15:20:24;16.65;;;7.30;;
70761;SDS011;58360;0.000;0.000;2022-10-31T15:22:51;18.77;;;7.40;;
70761;SDS011;58360;0.000;0.000;2022-10-31T15:25:21;23.67;;;7.80;;
70761;SDS011;58360;0.000;0.000;2022-10-31T15:27:49;21.75;;;7.88;;
70761;SDS011;58360;0.000;0.000;2022-10-31T15:30:20;23.42;;;8.75;;
70761;SDS011;58360;0.000;0.000;2022-10-31T15:32:46;27.20;;;8.20;;
70761;SDS011;58360;0.000;0.000;2022-10-31T15:35:26;19.98;;;7.40;;
70761;SDS011;58360;0.000;0.000;2022-10-31T15:37:54;18.48;;;8.07;;
70761;SDS011;58360;0.000;0.000;2022-10-31T15:40:22;17.25;;;7.78;;
70761;SDS011;58360;0.000;0.000;2022-10-31T15:42:51;21.35;;;8.07;;
70761;SDS011;58360;0.000;0.000;2022-10-31T15:45:23;16.45;;;8.20;;
70761;SDS011;58360;0.000;0.000;2022-10-31T15:47:55;18.35;;;8.55;;
70761;SDS011;58360;0.000;0.000;2022-10-31T15:50:31;28.27;;;9.48;;
70761;SDS011;58360;0.000;0.000;2022-10-31T15:53:00;18.38;;;9.18;;
70761;SDS011;58360;0.000;0.000;2022-10-31T15:55:29;23.27;;;10.05;;
70761;SDS011;58360;0.000;0.000;2022-10-31T15:57:58;23.45;;;11.23;;
70761;SDS011;58360;0.000;0.000;2022-10-31T16:00:36;26.40;;;11.15;;
70761;SDS011;58360;0.000;0.000;2022-10-31T16:03:06;28.35;;;11.68;;
70761;SDS011;58360;0.000;0.000;2022-10-31T16:05:34;26.50;;;12.65;;
70761;SDS011;58360;0.000;0.000;2022-10-31T16:08:04;24.27;;;12.45;;
70761;SDS011;58360;0.000;0.000;2022-10-31T16:10:48;26.17;;;12.13;;
70761;SDS011;58360;0.000;0.000;2022-10-31T16:13:13;27.23;;;14.52;;
70761;SDS011;58360;0.000;0.000;2022-10-31T16:15:45;27.45;;;13.45;;
70761;SDS011;58360;0.000;0.000;2022-10-31T16:18:14;23.20;;;12.43;;
70761;SDS011;58360;0.000;0.000;2022-10-31T16:20:40;29.20;;;13.40;;
70761;SDS011;58360;0.000;0.000;2022-10-31T16:23:13;39.65;;;22.17;;
70761;SDS011;58360;0.000;0.000;2022-10-31T16:25:42;29.90;;;14.25;;
70761;SDS011;58360;0.000;0.000;2022-10-31T16:28:16;31.45;;;14.85;;
70761;SDS011;58360;0.000;0.000;2022-10-31T16:30:54;29.00;;;14.82;;
70761;SDS011;58360;0.000;0.000;2022-10-31T16:33:21;31.83;;;16.45;;
70761;SDS011;58360;0.000;0.000;2022-10-31T16:38:53;29.52;;;16.63;;
70761;SDS011;58360;0.000;0.000;2022-10-31T16:41:19;27.50;;;17.20;;
70761;SDS011;58360;0.000;0.000;2022-10-31T16:43:45;41.45;;;18.40;;
70761;SDS011;58360;0.000;0.000;2022-10-31T16:46:15;31.88;;;17.42;;
70761;SDS011;58360;0.000;0.000;2022-10-31T16:48:46;36.78;;;18.48;;
70761;SDS011;58360;0.000;0.000;2022-10-31T16:51:12;34.03;;;18.05;;
70761;SDS011;58360;0.000;0.000;2022-10-31T16:53:38;41.53;;;19.90;;
70761;SDS011;58360;0.000;0.000;2022-10-31T16:56:03;34.15;;;19.30;;